Terminal Aerodrome Forecast
Issued by NWS Albany, NY

Home | Current Version | Previous Version | Text Only | Print | Product List | Glossary On
Versions: 1 2 3 4 5 6 7 8 9 10 11 12 13 14 15 16 17 18 19 20 21 22 23
171
FTUS41 KALY 261158 CCA
TAFPOU
TAF COR
KPOU 261158Z 2612/2712 36006KT 6SM -RA BR SCT006 OVC015
      TEMPO 2612/2615 3SM -RA BR BKN006
     FM261500 02005KT 5SM BR VCSH SCT006 OVC012
     FM261800 03005KT P6SM VCSH OVC025
     FM270000 VRB03KT 5SM -DZ BR OVC015
     FM270400 00000KT P6SM OVC010=

USA.gov is the U.S. government's official web portal to all federal, state and local government web resources and services.